createdAt,value
2022-09-17T00:00:34.074Z,12.27
2022-09-17T00:01:34.108Z,12.24
2022-09-17T00:02:34.099Z,12.21
2022-09-17T00:03:34.050Z,12.24
2022-09-17T00:04:33.994Z,12.20
2022-09-17T00:05:33.960Z,12.24
2022-09-17T00:06:33.955Z,12.24
2022-09-17T00:07:33.933Z,12.28
2022-09-17T00:08:33.964Z,12.27
2022-09-17T00:09:33.934Z,12.31
2022-09-17T00:10:33.938Z,12.24
2022-09-17T00:11:33.903Z,12.23
2022-09-17T00:12:33.925Z,12.24
2022-09-17T00:13:33.904Z,12.29
2022-09-17T00:14:33.856Z,12.27
2022-09-17T00:15:33.860Z,12.27
2022-09-17T00:16:33.945Z,12.32
2022-09-17T00:17:33.825Z,12.29
2022-09-17T00:18:33.817Z,12.32
2022-09-17T00:19:33.826Z,12.31
2022-09-17T00:20:33.819Z,12.35
2022-09-17T00:21:33.796Z,12.39
2022-09-17T00:22:33.784Z,12.41
2022-09-17T00:23:33.770Z,12.39
2022-09-17T00:24:33.758Z,12.38
2022-09-17T00:25:33.790Z,12.39
2022-09-17T00:26:33.747Z,12.42
2022-09-17T00:27:33.734Z,12.45
2022-09-17T00:28:33.715Z,12.46
2022-09-17T00:29:33.774Z,12.39
2022-09-17T00:30:33.712Z,12.39
2022-09-17T00:31:33.750Z,12.39
2022-09-17T00:32:33.669Z,12.42
2022-09-17T00:33:33.687Z,12.38
2022-09-17T00:34:33.690Z,12.41
2022-09-17T00:35:33.657Z,12.39
2022-09-17T00:36:33.635Z,12.39
2022-09-17T00:37:33.634Z,12.42
2022-09-17T00:38:33.621Z,12.39
2022-09-17T00:39:33.620Z,12.41
2022-09-17T00:40:33.678Z,12.41
2022-09-17T00:41:33.593Z,12.45
2022-09-17T00:42:33.594Z,12.39
2022-09-17T00:43:33.589Z,12.45
2022-09-17T00:44:33.584Z,12.46
2022-09-17T00:45:33.543Z,12.41
2022-09-17T00:46:33.608Z,12.46
2022-09-17T00:47:33.552Z,12.47
2022-09-17T00:48:33.542Z,12.47
2022-09-17T00:49:33.509Z,12.47
2022-09-17T00:50:33.512Z,12.42
2022-09-17T00:51:33.477Z,12.46
2022-09-17T00:52:33.473Z,12.49
2022-09-17T00:53:33.644Z,12.46
2022-09-17T00:54:33.493Z,12.49
2022-09-17T00:55:33.477Z,12.49
2022-09-17T00:56:33.435Z,12.46
2022-09-17T00:57:33.434Z,12.49
2022-09-17T00:58:35.849Z,12.49
2022-09-17T00:59:34.427Z,12.49
2022-09-17T01:00:33.454Z,12.50
2022-09-17T01:01:33.401Z,12.53
2022-09-17T01:02:33.389Z,12.47
2022-09-17T01:03:33.394Z,12.49
2022-09-17T01:04:33.363Z,12.54
2022-09-17T01:05:33.374Z,12.53
2022-09-17T01:06:33.325Z,12.52
2022-09-17T01:07:33.344Z,12.49
2022-09-17T01:08:33.313Z,12.50
2022-09-17T01:09:33.492Z,12.50
2022-09-17T01:10:33.285Z,12.53
2022-09-17T01:11:33.306Z,12.49
2022-09-17T01:12:33.276Z,12.54
2022-09-17T01:13:33.258Z,12.56
2022-09-17T01:14:33.247Z,12.53
2022-09-17T01:15:33.248Z,12.49
2022-09-17T01:16:33.351Z,12.52
2022-09-17T01:17:33.223Z,12.54
2022-09-17T01:18:33.209Z,12.54
2022-09-17T01:19:33.237Z,12.57
2022-09-17T01:20:33.197Z,12.56
2022-09-17T01:21:33.208Z,12.60
2022-09-17T01:22:33.179Z,12.57
2022-09-17T01:23:33.275Z,12.54
2022-09-17T01:24:33.263Z,12.52
2022-09-17T01:25:33.132Z,12.52
2022-09-17T01:26:33.139Z,12.54
2022-09-17T01:27:33.107Z,12.56
2022-09-17T01:28:33.098Z,12.59
2022-09-17T01:29:33.112Z,12.56
2022-09-17T01:30:33.077Z,12.60
2022-09-17T01:31:33.081Z,12.62
2022-09-17T01:32:33.072Z,12.59
2022-09-17T01:33:33.043Z,12.60
2022-09-17T01:34:33.066Z,12.59
2022-09-17T01:35:33.027Z,12.60
2022-09-17T01:36:33.013Z,12.60
2022-09-17T01:37:33.013Z,12.60
2022-09-17T01:38:32.986Z,12.64
2022-09-17T01:39:32.982Z,12.64
2022-09-17T01:40:33.027Z,12.64
2022-09-17T01:41:32.964Z,12.64
2022-09-17T01:42:32.960Z,12.62
2022-09-17T01:43:32.957Z,12.62
2022-09-17T01:44:32.994Z,12.64
2022-09-17T01:45:32.930Z,12.60
2022-09-17T01:46:32.943Z,12.60
2022-09-17T01:47:32.922Z,12.59
2022-09-17T01:48:32.890Z,12.62
2022-09-17T01:49:32.876Z,12.62
2022-09-17T01:50:32.873Z,12.59
2022-09-17T01:51:32.856Z,12.64
2022-09-17T01:52:32.875Z,12.67
2022-09-17T01:53:32.877Z,12.62
2022-09-17T01:54:32.841Z,12.68
2022-09-17T01:55:32.818Z,12.72
2022-09-17T01:56:32.820Z,12.72
2022-09-17T01:57:32.787Z,12.70
2022-09-17T01:58:32.799Z,12.71
2022-09-17T01:59:32.769Z,12.67
2022-09-17T02:00:32.852Z,12.65
2022-09-17T02:01:32.767Z,12.67
2022-09-17T02:02:32.759Z,12.62
2022-09-17T02:03:32.731Z,12.62
2022-09-17T02:04:32.728Z,12.62
2022-09-17T02:05:32.730Z,12.60
2022-09-17T02:06:32.728Z,12.64
2022-09-17T02:07:32.692Z,12.64
2022-09-17T02:08:32.681Z,12.65
2022-09-17T02:09:32.669Z,12.67
2022-09-17T02:10:32.679Z,12.70
2022-09-17T02:11:32.662Z,12.72
2022-09-17T02:12:32.662Z,12.70
2022-09-17T02:13:32.650Z,12.68
2022-09-17T02:14:32.609Z,12.70
2022-09-17T02:15:32.608Z,12.67
2022-09-17T02:16:32.698Z,12.67
2022-09-17T02:17:32.595Z,12.60
2022-09-17T02:18:32.575Z,12.62
2022-09-17T02:19:32.596Z,12.57
2022-09-17T02:20:32.579Z,12.57
2022-09-17T02:21:32.532Z,12.52
2022-09-17T02:22:32.555Z,12.49
2022-09-17T02:23:32.522Z,12.41
2022-09-17T02:24:32.536Z,12.45
2022-09-17T02:25:32.492Z,12.45
2022-09-17T02:26:32.500Z,12.42
2022-09-17T02:27:32.472Z,12.41
2022-09-17T02:28:32.496Z,12.41
2022-09-17T02:29:32.463Z,12.39
2022-09-17T02:30:32.454Z,12.39
2022-09-17T02:31:32.475Z,12.42
2022-09-17T02:32:32.435Z,12.46
2022-09-17T02:33:32.435Z,12.46
2022-09-17T02:34:32.414Z,12.46
2022-09-17T02:35:32.405Z,12.45
2022-09-17T02:36:32.392Z,12.46
2022-09-17T02:37:32.374Z,12.47
2022-09-17T02:38:32.382Z,12.50
2022-09-17T02:39:32.363Z,12.50
2022-09-17T02:40:32.402Z,12.53
2022-09-17T02:41:32.339Z,12.57
2022-09-17T02:42:32.345Z,12.57
2022-09-17T02:43:32.359Z,12.57
2022-09-17T02:44:32.298Z,12.57
2022-09-17T02:45:32.293Z,12.50
2022-09-17T02:46:32.338Z,12.53
2022-09-17T02:47:32.270Z,12.52
2022-09-17T02:48:32.288Z,12.49
2022-09-17T02:49:32.252Z,12.52
2022-09-17T02:50:32.248Z,12.49
2022-09-17T02:51:32.241Z,12.52
2022-09-17T02:52:32.238Z,12.50
2022-09-17T02:53:32.220Z,12.50
2022-09-17T02:54:32.200Z,12.52
2022-09-17T02:55:32.187Z,12.46
2022-09-17T02:56:32.180Z,12.50
2022-09-17T02:57:32.171Z,12.54
2022-09-17T02:58:32.182Z,12.53
2022-09-17T02:59:32.167Z,12.53
2022-09-17T03:00:32.222Z,12.57
2022-09-17T03:01:32.171Z,12.59
2022-09-17T03:02:32.112Z,12.60
2022-09-17T03:03:32.114Z,12.57
2022-09-17T03:04:32.100Z,12.56
2022-09-17T03:05:32.100Z,12.54
2022-09-17T03:06:32.100Z,12.54
2022-09-17T03:07:32.084Z,12.56
2022-09-17T03:08:32.041Z,12.54
2022-09-17T03:09:32.043Z,12.54
2022-09-17T03:10:32.031Z,12.54
2022-09-17T03:11:32.033Z,12.53
2022-09-17T03:12:32.024Z,12.53
2022-09-17T03:13:32.035Z,12.53
2022-09-17T03:14:32.000Z,12.54
2022-09-17T03:15:31.981Z,12.57
2022-09-17T03:16:31.996Z,12.52
2022-09-17T03:17:31.962Z,12.57
2022-09-17T03:18:31.976Z,12.50
2022-09-17T03:19:31.936Z,12.56
2022-09-17T03:20:31.934Z,12.56
2022-09-17T03:21:31.910Z,12.59
2022-09-17T03:22:31.915Z,12.60
2022-09-17T03:23:32.120Z,12.57
2022-09-17T03:24:32.154Z,12.59
2022-09-17T03:25:31.980Z,12.64
2022-09-17T03:26:31.951Z,12.64
2022-09-17T03:27:31.870Z,12.62
2022-09-17T03:28:31.841Z,12.68
2022-09-17T03:29:31.849Z,12.70
2022-09-17T03:30:31.818Z,12.64
2022-09-17T03:31:31.852Z,12.65
2022-09-17T03:32:31.824Z,12.64
2022-09-17T03:33:31.786Z,12.64
2022-09-17T03:34:31.785Z,12.64
2022-09-17T03:35:31.782Z,12.67
2022-09-17T03:36:31.786Z,12.64
2022-09-17T03:37:33.189Z,12.67
2022-09-17T03:38:31.748Z,12.67
2022-09-17T03:39:31.726Z,12.64
2022-09-17T03:40:31.754Z,12.64
2022-09-17T03:41:31.718Z,12.67
2022-09-17T03:42:31.697Z,12.70
2022-09-17T03:43:31.699Z,12.67
2022-09-17T03:44:31.681Z,12.68
2022-09-17T03:45:31.667Z,12.67
2022-09-17T03:46:31.708Z,12.72
2022-09-17T03:47:31.653Z,12.68
2022-09-17T03:48:31.635Z,12.70
2022-09-17T03:49:31.730Z,12.71
2022-09-17T03:50:31.633Z,12.68
2022-09-17T03:51:31.795Z,12.74
2022-09-17T03:52:31.593Z,12.71
2022-09-17T03:53:31.591Z,12.75
2022-09-17T03:54:31.568Z,12.78
2022-09-17T03:55:31.570Z,12.72
2022-09-17T03:56:31.582Z,12.71
2022-09-17T03:57:31.541Z,12.74
2022-09-17T03:58:31.544Z,12.74
2022-09-17T03:59:31.534Z,12.78
2022-09-17T04:00:31.513Z,12.75
2022-09-17T04:01:31.548Z,12.78
2022-09-17T04:02:31.566Z,12.82
2022-09-17T04:03:31.483Z,12.79
2022-09-17T04:04:31.481Z,12.79
2022-09-17T04:05:31.459Z,12.82
2022-09-17T04:06:31.465Z,12.85
2022-09-17T04:07:31.433Z,12.79
2022-09-17T04:08:31.372Z,12.77
2022-09-17T04:09:33.284Z,12.77
2022-09-17T04:10:31.416Z,12.82
2022-09-17T04:11:31.419Z,12.77
2022-09-17T04:12:31.427Z,12.79
2022-09-17T04:13:31.389Z,12.78
2022-09-17T04:14:31.420Z,12.78
2022-09-17T04:15:31.369Z,12.71
2022-09-17T04:16:31.383Z,12.72
2022-09-17T04:17:31.283Z,12.74
2022-09-17T04:18:31.264Z,12.74
2022-09-17T04:19:31.269Z,12.72
2022-09-17T04:20:31.257Z,12.68
2022-09-17T04:21:31.260Z,12.72
2022-09-17T04:22:31.291Z,12.74
2022-09-17T04:23:31.283Z,12.70
2022-09-17T04:24:31.216Z,12.74
2022-09-17T04:25:31.210Z,12.74
2022-09-17T04:26:31.214Z,12.75
2022-09-17T04:27:31.170Z,12.77
2022-09-17T04:28:31.167Z,12.77
2022-09-17T04:29:31.158Z,12.79
2022-09-17T04:30:31.149Z,12.77
2022-09-17T04:31:31.170Z,12.82
2022-09-17T04:32:31.175Z,12.82
2022-09-17T04:33:31.107Z,12.86
2022-09-17T04:34:31.112Z,12.82
2022-09-17T04:35:31.108Z,12.86
2022-09-17T04:36:31.135Z,12.89
2022-09-17T04:37:31.070Z,12.89
2022-09-17T04:38:31.059Z,12.86
2022-09-17T04:39:31.050Z,12.89
2022-09-17T04:40:31.120Z,12.85
2022-09-17T04:41:31.043Z,12.86
2022-09-17T04:42:31.038Z,12.92
2022-09-17T04:43:31.015Z,12.92
2022-09-17T04:44:30.990Z,12.97
2022-09-17T04:45:30.994Z,12.93
2022-09-17T04:46:31.035Z,12.96
2022-09-17T04:47:30.983Z,12.95
2022-09-17T04:48:30.971Z,12.93
2022-09-17T04:49:30.974Z,12.92
2022-09-17T04:50:30.941Z,12.86
2022-09-17T04:51:30.937Z,12.90
2022-09-17T04:52:31.220Z,12.87
2022-09-17T04:53:30.901Z,12.87
2022-09-17T04:54:30.915Z,12.89
2022-09-17T04:55:30.883Z,12.87
2022-09-17T04:56:30.887Z,12.89
2022-09-17T04:57:30.879Z,12.87
2022-09-17T04:58:30.895Z,12.89
2022-09-17T04:59:30.870Z,12.92
2022-09-17T05:00:30.837Z,12.87
2022-09-17T05:01:30.878Z,12.92
2022-09-17T05:02:30.903Z,12.92
2022-09-17T05:03:30.857Z,12.92
2022-09-17T05:04:30.801Z,12.92
2022-09-17T05:05:30.802Z,12.93
2022-09-17T05:06:30.781Z,12.92
2022-09-17T05:07:30.799Z,12.95
2022-09-17T05:08:30.759Z,12.93
2022-09-17T05:09:30.757Z,12.93
2022-09-17T05:10:30.716Z,12.92
2022-09-17T05:11:30.714Z,12.95
2022-09-17T05:12:34.330Z,12.95
2022-09-17T05:13:30.702Z,12.95
2022-09-17T05:14:30.694Z,12.95
2022-09-17T05:15:30.686Z,13.00
2022-09-17T05:16:30.798Z,13.00
2022-09-17T05:17:30.668Z,13.04
2022-09-17T05:18:30.664Z,12.97
2022-09-17T05:19:30.643Z,12.96
2022-09-17T05:20:30.642Z,12.96
2022-09-17T05:21:30.627Z,12.96
2022-09-17T05:22:30.608Z,13.00
2022-09-17T05:23:30.600Z,12.97
2022-09-17T05:24:30.607Z,13.00
2022-09-17T05:25:30.573Z,12.97
2022-09-17T05:26:30.607Z,13.00
2022-09-17T05:27:30.552Z,13.07
2022-09-17T05:28:30.548Z,13.07
2022-09-17T05:29:30.567Z,13.07
2022-09-17T05:30:30.559Z,13.07
2022-09-17T05:31:30.587Z,13.11
2022-09-17T05:32:30.520Z,13.11
2022-09-17T05:33:30.492Z,13.12
2022-09-17T05:34:30.488Z,13.08
2022-09-17T05:35:30.515Z,13.10
2022-09-17T05:36:30.453Z,13.15
2022-09-17T05:37:30.467Z,13.12
2022-09-17T05:38:30.441Z,13.17
2022-09-17T05:39:30.430Z,13.14
2022-09-17T05:40:30.502Z,13.12
2022-09-17T05:41:30.427Z,13.14
2022-09-17T05:42:30.416Z,13.17
2022-09-17T05:43:30.391Z,13.14
2022-09-17T05:44:30.393Z,13.20
2022-09-17T05:45:30.373Z,13.19
2022-09-17T05:46:30.418Z,13.19
2022-09-17T05:47:30.363Z,13.17
2022-09-17T05:48:30.360Z,13.22
2022-09-17T05:49:30.344Z,13.25
2022-09-17T05:50:30.335Z,13.25
2022-09-17T05:51:30.303Z,13.28
2022-09-17T05:52:30.347Z,13.29
2022-09-17T05:53:30.275Z,13.28
2022-09-17T05:54:30.301Z,13.32
2022-09-17T05:55:30.269Z,13.33
2022-09-17T05:56:30.276Z,13.38
2022-09-17T05:57:30.246Z,13.42
2022-09-17T05:58:30.241Z,13.38
2022-09-17T05:59:30.226Z,13.32
2022-09-17T06:00:30.284Z,13.36
2022-09-17T06:01:30.263Z,13.39
2022-09-17T06:02:30.290Z,13.36
2022-09-17T06:03:30.197Z,13.33
2022-09-17T06:04:34.114Z,13.32
2022-09-17T06:05:30.179Z,13.30
2022-09-17T06:06:30.157Z,13.30
2022-09-17T06:07:30.186Z,13.29
2022-09-17T06:08:30.141Z,13.29
2022-09-17T06:09:30.143Z,13.30
2022-09-17T06:10:30.127Z,13.28
2022-09-17T06:11:30.106Z,13.33
2022-09-17T06:12:30.095Z,13.33
2022-09-17T06:13:30.076Z,13.32
2022-09-17T06:14:30.075Z,13.39
2022-09-17T06:15:30.134Z,13.45
2022-09-17T06:16:30.123Z,13.48
2022-09-17T06:17:30.038Z,13.54
2022-09-17T06:18:30.037Z,13.52
2022-09-17T06:19:30.051Z,13.48
2022-09-17T06:20:30.031Z,13.51
2022-09-17T06:21:30.011Z,13.49
2022-09-17T06:22:30.036Z,13.54
2022-09-17T06:23:30.049Z,13.51
2022-09-17T06:24:30.018Z,13.48
2022-09-17T06:25:29.954Z,13.48
2022-09-17T06:26:29.942Z,13.49
2022-09-17T06:27:29.940Z,13.49
2022-09-17T06:28:29.957Z,13.48
2022-09-17T06:29:29.947Z,13.51
2022-09-17T06:30:29.945Z,13.52
2022-09-17T06:31:29.967Z,13.52
2022-09-17T06:32:29.938Z,13.54
2022-09-17T06:33:29.893Z,13.46
2022-09-17T06:34:29.943Z,13.52
2022-09-17T06:35:29.864Z,13.59
2022-09-17T06:36:29.847Z,13.60
2022-09-17T06:37:29.845Z,13.59
2022-09-17T06:38:30.078Z,13.63
2022-09-17T06:39:29.824Z,13.62
2022-09-17T06:40:29.889Z,13.63
2022-09-17T06:41:29.795Z,13.60
2022-09-17T06:42:29.856Z,13.55
2022-09-17T06:43:29.765Z,13.59
2022-09-17T06:44:29.764Z,13.52
2022-09-17T06:45:29.760Z,13.55
2022-09-17T06:46:29.789Z,13.63
2022-09-17T06:47:29.748Z,13.64
2022-09-17T06:48:29.717Z,13.71
2022-09-17T06:49:29.733Z,13.82
2022-09-17T06:50:29.735Z,13.79
2022-09-17T06:51:29.707Z,13.78
2022-09-17T06:52:29.697Z,13.79
2022-09-17T06:53:29.693Z,13.81
2022-09-17T06:54:29.684Z,13.81
2022-09-17T06:55:29.706Z,13.85
2022-09-17T06:56:29.636Z,13.92
2022-09-17T06:57:29.626Z,13.96
2022-09-17T06:58:29.647Z,13.79
2022-09-17T06:59:29.659Z,13.66
2022-09-17T07:00:29.636Z,13.62
2022-09-17T07:01:29.643Z,13.64
2022-09-17T07:02:29.611Z,13.64
2022-09-17T07:03:29.578Z,13.66
2022-09-17T07:04:29.582Z,13.59
2022-09-17T07:05:29.562Z,13.54
2022-09-17T07:06:29.536Z,13.48
2022-09-17T07:07:29.521Z,13.48
2022-09-17T07:08:29.551Z,13.52
2022-09-17T07:09:29.511Z,13.55
2022-09-17T07:10:29.484Z,13.55
2022-09-17T07:11:29.482Z,13.46
2022-09-17T07:12:29.500Z,13.45
2022-09-17T07:13:29.504Z,13.48
2022-09-17T07:14:29.452Z,13.54
2022-09-17T07:15:29.480Z,13.54
2022-09-17T07:16:29.524Z,13.55
2022-09-17T07:17:29.428Z,13.59
2022-09-17T07:18:29.426Z,13.63
2022-09-17T07:19:29.416Z,13.63
2022-09-17T07:20:29.383Z,13.59
2022-09-17T07:21:29.409Z,13.55
2022-09-17T07:22:29.409Z,13.57
2022-09-17T07:23:29.438Z,13.55
2022-09-17T07:24:32.730Z,13.54
2022-09-17T07:25:29.407Z,13.55
2022-09-17T07:26:29.361Z,13.54
2022-09-17T07:27:29.475Z,13.54
2022-09-17T07:28:29.331Z,13.55
2022-09-17T07:29:29.326Z,13.52
2022-09-17T07:30:29.286Z,13.60
2022-09-17T07:31:29.353Z,13.64
2022-09-17T07:32:29.277Z,13.69
2022-09-17T07:33:29.277Z,13.70
2022-09-17T07:34:29.267Z,13.73
2022-09-17T07:35:29.247Z,13.77
2022-09-17T07:36:29.237Z,13.79
2022-09-17T07:37:29.219Z,13.82
2022-09-17T07:38:29.276Z,13.79
2022-09-17T07:39:29.213Z,13.82
2022-09-17T07:40:29.235Z,13.78
2022-09-17T07:41:29.188Z,13.81
2022-09-17T07:42:29.200Z,13.81
2022-09-17T07:43:29.208Z,13.75
2022-09-17T07:44:29.149Z,13.77
2022-09-17T07:45:29.153Z,13.79
2022-09-17T07:46:29.223Z,13.84
2022-09-17T07:47:29.150Z,13.88
2022-09-17T07:48:29.124Z,13.92
2022-09-17T07:49:29.131Z,13.99
2022-09-17T07:50:29.090Z,13.96
2022-09-17T07:51:29.074Z,13.92
2022-09-17T07:52:29.071Z,13.99
2022-09-17T07:53:29.082Z,13.97
2022-09-17T07:54:29.057Z,14.02
2022-09-17T07:55:29.135Z,14.07
2022-09-17T07:56:29.033Z,14.06
2022-09-17T07:57:29.019Z,14.06
2022-09-17T07:58:29.038Z,14.09
2022-09-17T07:59:28.981Z,14.06
2022-09-17T08:00:29.019Z,14.03
2022-09-17T08:01:29.032Z,14.07
2022-09-17T08:02:29.030Z,14.06
2022-09-17T08:03:28.942Z,14.09
2022-09-17T08:04:28.944Z,14.22
2022-09-17T08:05:28.932Z,14.21
2022-09-17T08:06:28.937Z,14.20
2022-09-17T08:07:28.910Z,14.17
2022-09-17T08:08:29.864Z,14.07
2022-09-17T08:09:28.888Z,14.00
2022-09-17T08:10:28.866Z,14.04
2022-09-17T08:12:29.858Z,14.09
2022-09-17T08:13:28.844Z,14.07
2022-09-17T08:14:30.069Z,14.03
2022-09-17T08:15:28.817Z,14.04
2022-09-17T08:16:28.862Z,14.09
2022-09-17T08:17:28.822Z,14.02
2022-09-17T08:18:28.796Z,14.00
2022-09-17T08:19:28.777Z,14.06
2022-09-17T08:20:28.786Z,14.12
2022-09-17T08:21:28.765Z,14.18
2022-09-17T08:22:28.768Z,14.20
2022-09-17T08:23:28.751Z,14.29
2022-09-17T08:24:28.735Z,14.35
2022-09-17T08:25:28.728Z,14.54
2022-09-17T08:26:28.750Z,14.54
2022-09-17T08:27:28.726Z,14.58
2022-09-17T08:28:28.688Z,14.52
2022-09-17T08:29:31.018Z,14.43
2022-09-17T08:30:29.718Z,14.46
2022-09-17T08:31:28.769Z,14.50
2022-09-17T08:32:28.648Z,14.62
2022-09-17T08:33:28.718Z,14.72
2022-09-17T08:34:28.631Z,14.64
2022-09-17T08:35:28.618Z,14.61
2022-09-17T08:36:28.620Z,14.60
2022-09-17T08:37:28.620Z,14.62
2022-09-17T08:38:28.714Z,14.64
2022-09-17T08:39:28.580Z,14.65
2022-09-17T08:40:28.632Z,14.81
2022-09-17T08:41:28.552Z,15.03
2022-09-17T08:42:28.586Z,15.29
2022-09-17T08:43:28.597Z,15.31
2022-09-17T08:44:28.538Z,15.28
2022-09-17T08:45:28.520Z,15.34
2022-09-17T08:46:28.545Z,15.32
2022-09-17T08:47:28.512Z,15.41
2022-09-17T08:48:28.529Z,15.38
2022-09-17T08:49:28.480Z,15.39
2022-09-17T08:50:28.476Z,15.43
2022-09-17T08:51:28.455Z,15.43
2022-09-17T08:52:28.461Z,15.60
2022-09-17T08:53:28.461Z,15.57
2022-09-17T08:54:28.451Z,15.75
2022-09-17T08:55:28.423Z,15.86
2022-09-17T08:56:28.531Z,15.83
2022-09-17T08:57:28.386Z,15.60
2022-09-17T08:58:28.451Z,15.67
2022-09-17T08:59:28.389Z,15.62
2022-09-17T09:00:28.371Z,15.47
2022-09-17T09:01:28.391Z,15.38
2022-09-17T09:02:28.435Z,15.36
2022-09-17T09:03:28.376Z,15.56
2022-09-17T09:04:28.328Z,15.46
2022-09-17T09:05:28.307Z,15.59
2022-09-17T09:06:28.311Z,15.56
2022-09-17T09:07:28.333Z,15.71
2022-09-17T09:08:28.287Z,15.51
2022-09-17T09:09:28.316Z,15.75
2022-09-17T09:10:28.301Z,15.69
2022-09-17T09:11:28.273Z,15.71
2022-09-17T09:12:28.258Z,15.69
2022-09-17T09:13:28.240Z,15.74
2022-09-17T09:14:28.228Z,15.76
2022-09-17T09:15:28.231Z,15.89
2022-09-17T09:16:28.218Z,15.89
2022-09-17T09:17:28.189Z,15.86
2022-09-17T09:18:28.180Z,16.01
2022-09-17T09:19:28.263Z,15.84
2022-09-17T09:20:28.180Z,15.67
2022-09-17T09:21:28.131Z,15.78
2022-09-17T09:22:28.143Z,15.67
2022-09-17T09:23:28.134Z,15.60
2022-09-17T09:24:28.143Z,15.54
2022-09-17T09:25:28.122Z,15.68
2022-09-17T09:26:28.102Z,15.87
2022-09-17T09:27:28.091Z,15.96
2022-09-17T09:28:28.108Z,15.90
2022-09-17T09:29:28.121Z,15.97
2022-09-17T09:30:28.055Z,15.90
2022-09-17T09:31:28.121Z,15.96
2022-09-17T09:32:28.033Z,16.25
2022-09-17T09:33:28.053Z,16.27
2022-09-17T09:34:28.018Z,16.05
2022-09-17T09:35:28.005Z,16.02
2022-09-17T09:36:27.996Z,15.96
2022-09-17T09:37:27.990Z,16.02
2022-09-17T09:38:27.988Z,16.01
2022-09-17T09:39:28.053Z,16.04
2022-09-17T09:40:28.013Z,16.09
2022-09-17T09:41:27.944Z,16.30
2022-09-17T09:42:27.938Z,16.42
2022-09-17T09:43:41.209Z,16.21
2022-09-17T09:44:28.947Z,16.12
2022-09-17T09:45:27.908Z,16.20
2022-09-17T09:46:27.927Z,16.14
2022-09-17T09:47:27.889Z,16.11
2022-09-17T09:48:27.898Z,16.24
2022-09-17T09:49:27.859Z,16.25
2022-09-17T09:50:38.560Z,16.12
2022-09-17T09:51:28.852Z,16.08
2022-09-17T09:52:27.831Z,15.92
2022-09-17T09:53:27.838Z,15.78
2022-09-17T09:54:27.827Z,15.47
2022-09-17T09:55:27.800Z,15.47
2022-09-17T09:56:27.786Z,15.56
2022-09-17T09:57:27.799Z,15.54
2022-09-17T09:58:27.791Z,15.39
2022-09-17T09:59:27.847Z,15.35
2022-09-17T10:00:27.751Z,15.29
2022-09-17T10:01:27.764Z,15.38
2022-09-17T10:02:27.817Z,15.44
2022-09-17T10:03:27.719Z,15.49
2022-09-17T10:04:27.711Z,15.44
2022-09-17T10:05:27.693Z,15.57
2022-09-17T10:06:27.704Z,15.67
2022-09-17T10:07:27.732Z,15.83
2022-09-17T10:08:27.672Z,16.01
2022-09-17T10:09:27.656Z,16.02
2022-09-17T10:10:27.713Z,16.39
2022-09-17T10:11:27.636Z,16.58
2022-09-17T10:12:27.657Z,16.58
2022-09-17T10:13:27.615Z,16.35
2022-09-17T10:14:27.609Z,15.96
2022-09-17T10:15:27.612Z,15.80
2022-09-17T10:16:27.725Z,15.71
2022-09-17T10:17:27.594Z,15.68
2022-09-17T10:18:27.569Z,15.80
2022-09-17T10:19:27.554Z,15.84
2022-09-17T10:20:27.544Z,15.83
2022-09-17T10:21:27.549Z,15.87
2022-09-17T10:22:27.538Z,15.96
2022-09-17T10:23:27.518Z,15.97
2022-09-17T10:24:27.499Z,16.00
2022-09-17T10:25:27.499Z,16.02
2022-09-17T10:26:27.488Z,16.02
2022-09-17T10:27:27.485Z,16.00
2022-09-17T10:28:27.471Z,16.08
2022-09-17T10:29:27.450Z,16.05
2022-09-17T10:30:27.480Z,16.05
2022-09-17T10:31:27.447Z,16.00
2022-09-17T10:32:27.427Z,16.00
2022-09-17T10:33:27.412Z,16.05
2022-09-17T10:34:27.428Z,16.20
2022-09-17T10:35:27.404Z,16.11
2022-09-17T10:36:27.380Z,16.02
2022-09-17T10:37:27.382Z,16.12
2022-09-17T10:38:27.362Z,16.14
2022-09-17T10:39:27.354Z,16.00
2022-09-17T10:40:27.452Z,15.92
2022-09-17T10:41:27.322Z,15.83
2022-09-17T10:42:27.324Z,15.47
2022-09-17T10:43:27.380Z,15.23
2022-09-17T10:44:27.293Z,15.01
2022-09-17T10:45:27.303Z,14.84
2022-09-17T10:46:28.022Z,14.70
2022-09-17T10:47:27.272Z,14.73
2022-09-17T10:48:27.254Z,14.73
2022-09-17T10:49:27.254Z,14.78
2022-09-17T10:50:27.238Z,14.77
2022-09-17T10:51:27.243Z,14.91
2022-09-17T10:52:27.255Z,14.99
2022-09-17T10:53:27.205Z,15.16
2022-09-17T10:54:27.188Z,15.20
2022-09-17T10:55:27.211Z,15.34
2022-09-17T10:56:27.186Z,15.38
2022-09-17T10:57:27.169Z,15.49
2022-09-17T10:58:27.157Z,15.50
2022-09-17T10:59:27.156Z,15.50
2022-09-17T11:00:27.170Z,15.46
2022-09-17T11:01:27.150Z,15.62
2022-09-17T11:02:27.252Z,15.78
2022-09-17T11:03:27.105Z,16.01
2022-09-17T11:04:27.106Z,16.15
2022-09-17T11:05:27.076Z,16.20
2022-09-17T11:06:27.070Z,16.25
2022-09-17T11:07:27.061Z,16.11
2022-09-17T11:08:27.079Z,16.12
2022-09-17T11:09:27.063Z,16.11
2022-09-17T11:10:27.020Z,15.94
2022-09-17T11:11:27.028Z,15.82
2022-09-17T11:12:26.997Z,15.86
2022-09-17T11:13:27.060Z,16.04
2022-09-17T11:14:26.988Z,16.43
2022-09-17T11:15:26.976Z,16.61
2022-09-17T11:16:26.998Z,16.94
2022-09-17T11:17:26.951Z,17.18
2022-09-17T11:18:26.955Z,17.31
2022-09-17T11:19:26.957Z,17.44
2022-09-17T11:20:26.919Z,17.58
2022-09-17T11:21:26.913Z,17.86
2022-09-17T11:22:26.902Z,17.66
2022-09-17T11:23:26.920Z,17.37
2022-09-17T11:24:26.902Z,17.00
2022-09-17T11:25:26.883Z,16.89
2022-09-17T11:26:26.844Z,16.83
2022-09-17T11:27:26.847Z,16.70
2022-09-17T11:28:26.871Z,16.58
2022-09-17T11:29:26.856Z,16.82
2022-09-17T11:30:26.815Z,17.19
2022-09-17T11:31:26.875Z,17.36
2022-09-17T11:32:26.800Z,17.28
2022-09-17T11:33:26.788Z,17.40
2022-09-17T11:34:26.793Z,17.58
2022-09-17T11:35:26.782Z,17.68
2022-09-17T11:36:26.758Z,17.46
2022-09-17T11:37:26.747Z,17.18
2022-09-17T11:38:26.737Z,17.03
2022-09-17T11:39:26.736Z,16.81
2022-09-17T11:40:26.762Z,16.57
2022-09-17T11:41:26.708Z,16.38
2022-09-17T11:42:26.707Z,16.33
2022-09-17T11:43:26.676Z,16.31
2022-09-17T11:44:26.679Z,16.24
2022-09-17T11:45:26.675Z,16.25
2022-09-17T11:46:26.700Z,16.30
2022-09-17T11:47:26.659Z,16.31
2022-09-17T11:48:26.640Z,16.30
2022-09-17T11:49:26.612Z,16.09
2022-09-17T11:50:26.618Z,16.04
2022-09-17T11:51:26.670Z,16.04
2022-09-17T11:52:26.608Z,16.14
2022-09-17T11:53:26.579Z,16.15
2022-09-17T11:54:26.571Z,16.14
2022-09-17T11:55:26.581Z,16.09
2022-09-17T11:56:26.545Z,15.74
2022-09-17T11:57:26.551Z,15.71
2022-09-17T11:58:26.529Z,15.65
2022-09-17T11:59:26.654Z,15.69
2022-09-17T12:00:28.497Z,15.83
2022-09-17T12:01:26.501Z,16.20
2022-09-17T12:02:26.541Z,16.20
2022-09-17T12:03:26.516Z,15.96
2022-09-17T12:04:26.463Z,16.11
2022-09-17T12:05:26.454Z,16.52
2022-09-17T12:06:26.546Z,16.53
2022-09-17T12:07:26.446Z,16.39
2022-09-17T12:08:26.437Z,16.33
2022-09-17T12:09:26.435Z,16.24
2022-09-17T12:10:26.442Z,16.35
2022-09-17T12:11:26.416Z,16.41
2022-09-17T12:12:48.452Z,16.46
2022-09-17T12:13:27.374Z,16.70
2022-09-17T12:14:26.383Z,16.81
2022-09-17T12:15:26.383Z,16.75
2022-09-17T12:16:26.403Z,16.81
2022-09-17T12:17:26.325Z,16.81
2022-09-17T12:18:33.877Z,16.63
2022-09-17T12:19:27.326Z,16.60
2022-09-17T12:20:26.306Z,16.64
2022-09-17T12:21:26.289Z,16.50
2022-09-17T12:22:26.276Z,16.52
2022-09-17T12:23:26.268Z,16.56
2022-09-17T12:24:26.298Z,16.52
2022-09-17T12:25:26.257Z,16.57
2022-09-17T12:26:26.259Z,16.49
2022-09-17T12:27:26.271Z,16.30
2022-09-17T12:28:26.276Z,16.12
2022-09-17T12:29:26.231Z,16.12
2022-09-17T12:30:26.198Z,16.15
2022-09-17T12:31:26.257Z,16.09
2022-09-17T12:32:26.182Z,16.17
2022-09-17T12:33:26.170Z,16.33
2022-09-17T12:34:26.180Z,16.60
2022-09-17T12:35:41.060Z,16.76
2022-09-17T12:36:27.151Z,16.83
2022-09-17T12:37:26.129Z,17.11
2022-09-17T12:38:26.123Z,17.38
2022-09-17T12:39:26.185Z,17.62
2022-09-17T12:40:26.152Z,17.77
2022-09-17T12:41:26.072Z,17.89
2022-09-17T12:42:26.084Z,17.96
2022-09-17T12:43:26.085Z,17.82
2022-09-17T12:44:26.052Z,17.77
2022-09-17T12:45:26.052Z,17.72
2022-09-17T12:46:26.105Z,17.59
2022-09-17T12:47:26.043Z,17.44
2022-09-17T12:48:26.025Z,17.40
2022-09-17T12:49:26.003Z,17.55
2022-09-17T12:50:26.008Z,17.74
2022-09-17T12:51:25.985Z,17.78
2022-09-17T12:52:26.005Z,17.99
2022-09-17T12:53:25.989Z,18.14